createdAt,value
2019-05-03T00:00:18.707Z,73.19
2019-05-03T00:02:52.176Z,73.52
2019-05-03T00:05:26.300Z,75.37
2019-05-03T00:07:57.304Z,76.34
2019-05-03T00:10:26.870Z,76.53
2019-05-03T00:12:56.398Z,76.37
2019-05-03T00:15:27.636Z,77.01
2019-05-03T00:17:57.324Z,77.94
2019-05-03T00:20:26.916Z,78.25
2019-05-03T00:22:57.899Z,79.43
2019-05-03T00:25:27.429Z,80.08
2019-05-03T00:27:56.892Z,80.68
2019-05-03T00:30:26.336Z,80.99
2019-05-03T00:32:56.071Z,79.15
2019-05-03T00:35:36.032Z,78.84
2019-05-03T00:38:08.378Z,78.38
2019-05-03T00:40:37.949Z,78.07
2019-05-03T00:43:07.392Z,78.57
2019-05-03T00:45:36.859Z,78.70
2019-05-03T00:48:06.485Z,78.46
2019-05-03T00:50:35.928Z,78.58
2019-05-03T00:53:05.394Z,77.16
2019-05-03T00:55:34.857Z,77.14
2019-05-03T00:58:06.082Z,76.64
2019-05-03T01:00:35.631Z,75.17
2019-05-03T01:03:05.248Z,75.89
2019-05-03T01:05:35.442Z,76.05
2019-05-03T01:08:05.211Z,75.68
2019-05-03T01:10:34.675Z,75.84
2019-05-03T01:13:04.135Z,77.17
2019-05-03T01:15:35.246Z,77.23
2019-05-03T01:18:06.367Z,78.28
2019-05-03T01:20:35.976Z,77.95
2019-05-03T01:23:05.429Z,78.27
2019-05-03T01:25:35.609Z,79.26
2019-05-03T01:28:05.409Z,79.39
2019-05-03T01:30:34.868Z,79.05
2019-05-03T01:33:04.699Z,79.36
2019-05-03T01:35:34.285Z,80.10
2019-05-03T01:38:03.967Z,80.02
2019-05-03T01:40:33.421Z,79.09
2019-05-03T01:43:02.885Z,78.80
2019-05-03T01:45:32.466Z,78.12
2019-05-03T01:48:05.229Z,78.54
2019-05-03T01:50:36.301Z,77.93
2019-05-03T01:53:07.553Z,78.07
2019-05-03T01:55:52.482Z,75.67
2019-05-03T01:58:23.263Z,74.69
2019-05-03T02:01:07.474Z,74.57
2019-05-03T02:03:53.903Z,73.15
2019-05-03T02:06:23.380Z,72.92
2019-05-03T02:08:52.833Z,72.07
2019-05-03T02:11:22.360Z,72.96
2019-05-03T02:13:52.189Z,71.10
2019-05-03T02:16:21.974Z,72.48
2019-05-03T02:18:52.335Z,71.80
2019-05-03T02:21:22.046Z,71.64
2019-05-03T02:23:52.048Z,72.54
2019-05-03T02:26:22.436Z,73.21
2019-05-03T02:28:52.738Z,74.03
2019-05-03T02:31:23.122Z,74.21
2019-05-03T02:33:53.632Z,75.26
2019-05-03T02:36:23.541Z,75.34
2019-05-03T02:38:53.665Z,75.35
2019-05-03T02:41:23.318Z,75.42
2019-05-03T02:43:57.139Z,75.82
2019-05-03T02:46:28.231Z,76.04
2019-05-03T02:49:06.427Z,76.39
2019-05-03T02:51:36.289Z,76.29
2019-05-03T02:54:05.993Z,76.10
2019-05-03T02:56:35.948Z,76.19
2019-05-03T02:59:06.334Z,75.98
2019-05-03T03:01:36.297Z,76.35
2019-05-03T03:04:06.137Z,76.03
2019-05-03T03:06:37.079Z,75.02
2019-05-03T03:09:07.440Z,73.91
2019-05-03T03:11:39.161Z,72.54
2019-05-03T03:14:10.662Z,72.97
2019-05-03T03:16:45.533Z,72.16
2019-05-03T03:19:16.728Z,72.75
2019-05-03T03:21:48.889Z,73.61
2019-05-03T03:24:20.457Z,74.44
2019-05-03T03:26:51.803Z,75.36
2019-05-03T03:29:25.267Z,76.02
2019-05-03T03:32:09.936Z,77.28
2019-05-03T03:35:11.962Z,78.16
2019-05-03T03:37:40.749Z,78.99
2019-05-03T03:40:10.347Z,79.80
2019-05-03T03:42:40.805Z,80.27
2019-05-03T03:45:11.099Z,81.25
2019-05-03T03:47:40.795Z,81.42
2019-05-03T03:50:11.947Z,81.77
2019-05-03T03:52:45.027Z,82.01
2019-05-03T03:55:16.147Z,82.23
2019-05-03T03:57:46.821Z,79.71
2019-05-03T04:00:17.907Z,77.69
2019-05-03T04:02:47.629Z,77.58
2019-05-03T04:05:17.298Z,77.95
2019-05-03T04:07:47.026Z,77.73
2019-05-03T04:10:16.524Z,77.40
2019-05-03T04:12:47.492Z,77.50
2019-05-03T04:15:30.985Z,77.85
2019-05-03T04:18:09.283Z,77.65
2019-05-03T04:20:38.850Z,77.07
2019-05-03T04:23:08.475Z,77.14
2019-05-03T04:25:38.315Z,76.48
2019-05-03T04:28:08.486Z,75.51
2019-05-03T04:30:37.976Z,76.48
2019-05-03T04:33:07.723Z,76.46
2019-05-03T04:35:37.323Z,76.27
2019-05-03T04:38:06.796Z,76.05
2019-05-03T04:40:36.269Z,76.20
2019-05-03T04:43:10.027Z,76.24
2019-05-03T04:45:39.457Z,75.51
2019-05-03T04:48:09.160Z,76.78
2019-05-03T04:50:38.597Z,75.70
2019-05-03T04:53:08.225Z,76.17
2019-05-03T04:55:37.647Z,75.21
2019-05-03T04:58:07.101Z,75.52
2019-05-03T05:00:36.497Z,75.76
2019-05-03T05:03:06.302Z,75.57
2019-05-03T05:05:36.453Z,75.87
2019-05-03T05:08:06.358Z,74.68
2019-05-03T05:10:36.377Z,74.93
2019-05-03T05:13:07.445Z,73.34
2019-05-03T05:15:36.916Z,73.08
2019-05-03T05:18:10.484Z,71.67
2019-05-03T05:20:56.701Z,70.35
2019-05-03T05:23:26.609Z,68.36
2019-05-03T05:26:05.539Z,66.43
2019-05-03T05:28:44.722Z,65.19
2019-05-03T05:31:15.185Z,65.73
2019-05-03T05:33:44.851Z,64.60
2019-05-03T05:36:15.276Z,65.43
2019-05-03T05:38:45.192Z,68.46
2019-05-03T05:41:15.639Z,68.99
2019-05-03T05:43:45.301Z,68.46
2019-05-03T05:46:15.432Z,68.28
2019-05-03T05:48:49.250Z,69.33
2019-05-03T05:51:18.689Z,70.61
2019-05-03T05:53:48.125Z,69.92
2019-05-03T05:56:35.373Z,68.70
2019-05-03T05:59:14.703Z,67.48
2019-05-03T06:01:45.750Z,67.04
2019-05-03T06:04:15.473Z,65.58
2019-05-03T06:06:52.365Z,62.85
2019-05-03T06:09:29.093Z,58.62
2019-05-03T06:12:00.170Z,57.55
2019-05-03T06:14:34.698Z,56.91
2019-05-03T06:17:08.998Z,56.63
2019-05-03T06:19:44.918Z,54.62
2019-05-03T06:22:16.096Z,57.56
2019-05-03T06:24:47.178Z,58.41
2019-05-03T06:27:24.560Z,60.74
2019-05-03T06:29:55.645Z,60.63
2019-05-03T06:32:28.419Z,57.77
2019-05-03T06:34:57.821Z,56.31
2019-05-03T06:37:28.942Z,58.24
2019-05-03T06:39:58.513Z,60.51
2019-05-03T06:42:28.612Z,59.94
2019-05-03T06:44:59.169Z,59.57
2019-05-03T06:47:29.238Z,60.27
2019-05-03T06:49:58.700Z,61.05
2019-05-03T06:52:29.443Z,61.06
2019-05-03T06:55:00.318Z,60.16
2019-05-03T06:57:30.412Z,56.87
2019-05-03T07:00:01.490Z,54.79
2019-05-03T07:02:32.645Z,51.26
2019-05-03T07:05:10.666Z,50.01
2019-05-03T07:07:47.642Z,55.91
2019-05-03T07:10:27.557Z,58.00
2019-05-03T07:13:01.705Z,58.31
2019-05-03T07:15:35.138Z,56.14
2019-05-03T07:18:05.772Z,57.78
2019-05-03T07:20:46.025Z,57.57
2019-05-03T07:23:15.794Z,57.53
2019-05-03T07:25:45.641Z,56.94
2019-05-03T07:28:15.211Z,56.51
2019-05-03T07:30:45.346Z,58.08
2019-05-03T07:33:16.894Z,55.45
2019-05-03T07:35:47.935Z,54.06
2019-05-03T07:38:18.707Z,54.47
2019-05-03T07:40:49.110Z,52.32
2019-05-03T07:43:18.920Z,52.04
2019-05-03T07:45:48.504Z,51.72
2019-05-03T07:48:18.038Z,51.35
2019-05-03T07:50:47.558Z,47.55
2019-05-03T07:53:17.081Z,47.84
2019-05-03T07:55:51.303Z,47.06
2019-05-03T07:58:28.389Z,48.23
2019-05-03T08:01:06.277Z,47.87
2019-05-03T08:03:31.280Z,47.37
2019-05-03T08:06:04.575Z,46.71
2019-05-03T08:08:35.358Z,46.86
2019-05-03T08:11:05.649Z,48.59
2019-05-03T08:13:35.703Z,46.40
2019-05-03T08:16:06.043Z,44.86
2019-05-03T08:18:35.774Z,47.37
2019-05-03T08:21:06.101Z,46.25
2019-05-03T08:23:36.323Z,47.62
2019-05-03T08:26:09.092Z,49.03
2019-05-03T08:28:38.519Z,50.33
2019-05-03T08:31:15.387Z,48.14
2019-05-03T08:33:52.599Z,46.06
2019-05-03T08:36:22.122Z,45.48
2019-05-03T08:38:51.721Z,43.24
2019-05-03T08:41:24.638Z,39.46
2019-05-03T08:43:55.012Z,38.88
2019-05-03T08:46:25.372Z,38.02
2019-05-03T08:48:55.084Z,38.37
2019-05-03T08:51:25.138Z,36.29
2019-05-03T08:53:55.991Z,35.38
2019-05-03T08:56:27.236Z,37.63
2019-05-03T08:58:56.955Z,36.90
2019-05-03T09:01:26.573Z,35.74
2019-05-03T09:03:56.220Z,38.92
2019-05-03T09:06:25.940Z,39.01
2019-05-03T09:08:57.274Z,37.00
2019-05-03T09:11:34.035Z,37.66
2019-05-03T09:14:05.003Z,38.40
2019-05-03T09:16:35.567Z,38.45
2019-05-03T09:19:05.648Z,37.33
2019-05-03T09:21:36.849Z,36.82
2019-05-03T09:24:06.551Z,35.43
2019-05-03T09:26:36.175Z,38.62
2019-05-03T09:29:05.739Z,36.92
2019-05-03T09:31:35.835Z,37.35
2019-05-03T09:34:08.087Z,38.44
2019-05-03T09:36:36.730Z,38.43
2019-05-03T09:39:08.170Z,35.58
2019-05-03T09:41:37.617Z,38.22
2019-05-03T09:44:07.112Z,39.07
2019-05-03T09:46:36.545Z,39.56
2019-05-03T09:49:13.472Z,44.22
2019-05-03T09:51:39.844Z,41.75
2019-05-03T09:54:14.867Z,46.32
2019-05-03T09:56:58.662Z,44.55
2019-05-03T09:59:29.773Z,44.56
2019-05-03T10:01:59.953Z,43.97
2019-05-03T10:04:29.351Z,41.94
2019-05-03T10:07:00.366Z,40.68
2019-05-03T10:09:29.885Z,40.33
2019-05-03T10:12:00.261Z,38.72
2019-05-03T10:14:29.655Z,40.59
2019-05-03T10:17:09.717Z,37.08
2019-05-03T10:19:40.456Z,34.54
2019-05-03T10:22:10.494Z,35.74
2019-05-03T10:24:39.962Z,35.95
2019-05-03T10:27:09.865Z,38.10
2019-05-03T10:29:39.314Z,36.12
2019-05-03T10:32:19.401Z,36.02
2019-05-03T10:34:56.707Z,37.63
2019-05-03T10:37:35.825Z,39.86
2019-05-03T10:40:08.100Z,37.61
2019-05-03T10:42:38.257Z,36.93
2019-05-03T10:45:08.406Z,36.28
2019-05-03T10:47:37.872Z,37.07
2019-05-03T10:50:08.412Z,32.88
2019-05-03T10:52:40.466Z,36.26
2019-05-03T10:55:10.264Z,39.21
2019-05-03T10:57:41.516Z,50.25
2019-05-03T11:00:40.902Z,58.85
2019-05-03T11:02:55.084Z,61.03
2019-05-03T11:05:24.689Z,60.25
2019-05-03T11:07:55.592Z,59.66
2019-05-03T11:10:25.418Z,55.18
2019-05-03T11:12:54.951Z,56.93
2019-05-03T11:15:25.913Z,51.11
2019-05-03T11:17:55.458Z,47.34
2019-05-03T11:20:35.654Z,47.11
2019-05-03T11:23:07.008Z,44.56
2019-05-03T11:25:37.322Z,38.70
2019-05-03T11:28:20.932Z,38.35
2019-05-03T11:30:55.684Z,37.62
2019-05-03T11:33:26.043Z,47.43
2019-05-03T11:35:57.360Z,55.83
2019-05-03T11:38:31.395Z,60.69
2019-05-03T11:41:00.814Z,59.97
2019-05-03T11:43:31.884Z,58.03
2019-05-03T11:46:01.278Z,56.71
2019-05-03T11:48:30.919Z,57.42
2019-05-03T11:51:00.323Z,59.83
2019-05-03T11:53:29.940Z,57.28
2019-05-03T11:55:59.345Z,55.25
2019-05-03T11:58:30.240Z,56.95
2019-05-03T12:01:14.963Z,57.73
2019-05-03T12:03:37.307Z,54.16
2019-05-03T12:06:06.953Z,52.55
2019-05-03T12:08:36.399Z,47.10
2019-05-03T12:11:05.964Z,47.24
2019-05-03T12:13:37.018Z,41.01
2019-05-03T12:16:17.081Z,43.70
2019-05-03T12:18:48.884Z,46.27
2019-05-03T12:21:10.544Z,45.58
2019-05-03T12:23:40.766Z,49.22
2019-05-03T12:26:13.491Z,49.53
2019-05-03T12:28:41.708Z,49.32
2019-05-03T12:31:25.719Z,47.81
2019-05-03T12:33:42.241Z,47.58
2019-05-03T12:36:11.708Z,47.50
2019-05-03T12:38:41.168Z,46.61
2019-05-03T12:41:10.717Z,45.00
2019-05-03T12:43:40.158Z,44.28
2019-05-03T12:46:09.580Z,42.95
2019-05-03T12:48:39.027Z,45.29
2019-05-03T12:51:08.997Z,44.41
2019-05-03T12:53:38.771Z,41.16
2019-05-03T12:56:12.360Z,39.94
2019-05-03T12:58:50.278Z,38.99
2019-05-03T13:01:21.587Z,37.38
2019-05-03T13:03:52.696Z,36.32
2019-05-03T13:06:22.130Z,38.34
2019-05-03T13:08:51.558Z,38.62
2019-05-03T13:11:21.060Z,36.27
2019-05-03T13:13:50.543Z,36.19
2019-05-03T13:16:20.995Z,36.50
2019-05-03T13:18:50.440Z,38.38
2019-05-03T13:21:19.882Z,39.15
2019-05-03T13:23:49.507Z,40.29
2019-05-03T13:26:18.921Z,38.05
2019-05-03T13:28:48.686Z,37.73
2019-05-03T13:31:18.274Z,39.84
2019-05-03T13:33:47.710Z,39.22
2019-05-03T13:36:17.167Z,36.69
2019-05-03T13:38:46.682Z,37.75
2019-05-03T13:41:16.126Z,48.50
2019-05-03T13:43:45.638Z,52.37
2019-05-03T13:46:15.635Z,54.53
2019-05-03T13:48:48.850Z,55.11
2019-05-03T13:51:16.538Z,56.81
2019-05-03T13:53:46.039Z,58.09
2019-05-03T13:56:15.616Z,57.75
2019-05-03T13:58:45.054Z,54.00
2019-05-03T14:01:14.845Z,53.52
2019-05-03T14:03:45.230Z,52.08
2019-05-03T14:06:14.977Z,52.36
2019-05-03T14:08:45.703Z,50.76
2019-05-03T14:11:15.655Z,48.58
2019-05-03T14:13:45.279Z,49.61
2019-05-03T14:16:14.883Z,47.40
2019-05-03T14:18:47.482Z,46.12
2019-05-03T14:21:30.562Z,45.55
2019-05-03T14:24:07.735Z,44.41
2019-05-03T14:26:37.768Z,44.56
2019-05-03T14:29:07.380Z,43.99
2019-05-03T14:31:36.882Z,46.48
2019-05-03T14:34:06.401Z,47.61
2019-05-03T14:36:36.110Z,49.25
2019-05-03T14:39:09.749Z,48.98
2019-05-03T14:41:38.815Z,51.10
2019-05-03T14:44:08.754Z,51.51
2019-05-03T14:46:38.415Z,50.91
2019-05-03T14:49:07.899Z,51.02
2019-05-03T14:51:37.516Z,48.54
2019-05-03T14:54:07.741Z,48.80
2019-05-03T14:56:40.347Z,50.69
2019-05-03T14:59:14.868Z,47.92
2019-05-03T15:01:46.047Z,49.04
2019-05-03T15:04:15.583Z,46.57
2019-05-03T15:06:46.036Z,48.21
2019-05-03T15:09:18.902Z,50.78
2019-05-03T15:11:47.586Z,53.70
2019-05-03T15:14:17.011Z,53.54
2019-05-03T15:16:46.521Z,46.13
2019-05-03T15:19:16.554Z,47.33
2019-05-03T15:21:46.356Z,46.91
2019-05-03T15:24:16.074Z,47.75
2019-05-03T15:26:45.616Z,48.78
2019-05-03T15:29:15.630Z,50.54
2019-05-03T15:31:45.138Z,51.89
2019-05-03T15:34:15.244Z,52.59
2019-05-03T15:36:45.147Z,51.85
2019-05-03T15:39:15.375Z,52.70
2019-05-03T15:41:45.097Z,54.52
2019-05-03T15:44:25.336Z,55.35
2019-05-03T15:46:56.479Z,54.79
2019-05-03T15:49:27.722Z,52.98
2019-05-03T15:51:57.311Z,53.15
2019-05-03T15:54:26.735Z,53.00
2019-05-03T15:56:56.145Z,53.81
2019-05-03T15:59:25.662Z,52.88
2019-05-03T16:01:55.366Z,53.98
2019-05-03T16:04:25.114Z,56.36
2019-05-03T16:06:55.435Z,58.01
2019-05-03T16:09:25.123Z,59.87
2019-05-03T16:11:56.031Z,59.50
2019-05-03T16:14:26.980Z,59.02
2019-05-03T16:16:56.406Z,58.21
2019-05-03T16:19:25.922Z,55.50
2019-05-03T16:21:55.410Z,51.01
2019-05-03T16:24:25.025Z,49.23
2019-05-03T16:27:15.876Z,47.38
2019-05-03T16:29:46.249Z,47.15
2019-05-03T16:32:15.710Z,47.84
2019-05-03T16:34:45.135Z,52.36
2019-05-03T16:37:14.927Z,54.95
2019-05-03T16:39:45.398Z,55.80
2019-05-03T16:42:15.396Z,55.49
2019-05-03T16:44:44.941Z,58.38
2019-05-03T16:47:15.673Z,64.99
2019-05-03T16:49:45.294Z,67.99
2019-05-03T16:52:17.275Z,68.87
2019-05-03T16:54:45.830Z,67.17
2019-05-03T16:57:17.494Z,66.37
2019-05-03T16:59:47.103Z,65.50
2019-05-03T17:02:17.384Z,65.98
2019-05-03T17:04:48.619Z,66.22
2019-05-03T17:07:22.490Z,66.67
2019-05-03T17:09:56.599Z,66.01
2019-05-03T17:12:34.806Z,64.81
2019-05-03T17:15:07.591Z,64.68
2019-05-03T17:17:37.009Z,63.17
2019-05-03T17:20:08.332Z,63.36
2019-05-03T17:22:37.772Z,64.77
2019-05-03T17:25:07.273Z,66.31
2019-05-03T17:27:36.655Z,69.52
2019-05-03T17:30:07.926Z,70.22
2019-05-03T17:32:37.317Z,73.30
2019-05-03T17:35:07.283Z,76.48
2019-05-03T17:37:36.727Z,74.10
2019-05-03T17:40:24.607Z,73.29
2019-05-03T17:42:55.935Z,71.84
2019-05-03T17:45:45.441Z,69.58
2019-05-03T17:48:15.077Z,68.23
2019-05-03T17:50:45.409Z,69.09
2019-05-03T17:53:28.712Z,69.76
2019-05-03T17:56:08.519Z,69.53
2019-05-03T17:58:39.602Z,69.68
2019-05-03T18:01:26.961Z,69.23
2019-05-03T18:04:10.211Z,69.57
2019-05-03T18:06:57.912Z,67.63
2019-05-03T18:09:28.992Z,72.28
2019-05-03T18:12:04.584Z,76.08
2019-05-03T18:14:34.557Z,77.26
2019-05-03T18:17:05.721Z,77.67
2019-05-03T18:19:35.288Z,78.17
2019-05-03T18:22:05.304Z,79.17
2019-05-03T18:24:35.273Z,80.12
2019-05-03T18:27:05.064Z,80.40
2019-05-03T18:29:34.764Z,80.92
2019-05-03T18:32:05.504Z,81.36
2019-05-03T18:34:36.693Z,82.17
2019-05-03T18:37:06.224Z,81.94
2019-05-03T18:39:35.900Z,82.19
2019-05-03T18:42:06.999Z,81.54
2019-05-03T18:44:40.706Z,81.68
2019-05-03T18:47:21.194Z,82.10
2019-05-03T18:49:50.781Z,81.64
2019-05-03T18:52:20.381Z,81.08
2019-05-03T18:54:49.889Z,81.51
2019-05-03T18:57:19.353Z,80.52
2019-05-03T18:59:48.743Z,73.95
2019-05-03T19:02:18.638Z,70.59
2019-05-03T19:04:49.741Z,67.20
2019-05-03T19:07:28.326Z,67.67
2019-05-03T19:12:55.281Z,64.53
2019-05-03T19:15:25.178Z,65.39
2019-05-03T19:17:56.492Z,66.90
2019-05-03T19:20:26.038Z,67.22
2019-05-03T19:22:55.797Z,66.84
2019-05-03T19:25:25.640Z,68.34
2019-05-03T19:27:55.188Z,67.86
2019-05-03T19:30:24.863Z,66.95
2019-05-03T19:32:55.178Z,68.89
2019-05-03T19:35:27.806Z,68.18
2019-05-03T19:37:57.553Z,68.03
2019-05-03T19:40:28.613Z,67.66
2019-05-03T19:42:58.048Z,68.65
2019-05-03T19:45:27.618Z,66.38
2019-05-03T19:47:57.045Z,67.13
2019-05-03T19:50:27.360Z,68.23
2019-05-03T19:52:58.574Z,67.14
2019-05-03T19:55:28.040Z,69.01
2019-05-03T19:57:57.477Z,69.43
2019-05-03T20:00:31.663Z,68.61
2019-05-03T20:03:08.100Z,68.43
2019-05-03T20:05:41.021Z,67.89
2019-05-03T20:08:12.107Z,69.16
2019-05-03T20:10:41.576Z,68.88
2019-05-03T20:13:11.015Z,68.53
2019-05-03T20:15:40.449Z,69.38
2019-05-03T20:18:10.163Z,68.63
2019-05-03T20:20:41.376Z,68.53
2019-05-03T20:23:10.798Z,68.48
2019-05-03T20:25:40.232Z,66.11
2019-05-03T20:28:09.811Z,64.64
2019-05-03T20:30:39.686Z,64.74
2019-05-03T20:33:09.081Z,64.56
2019-05-03T20:35:38.508Z,61.70
2019-05-03T20:38:07.908Z,61.23
2019-05-03T20:40:37.404Z,62.68
2019-05-03T20:43:08.558Z,63.45
2019-05-03T20:45:39.635Z,63.42
2019-05-03T20:48:10.669Z,62.29
2019-05-03T20:50:40.112Z,63.11
2019-05-03T20:53:09.518Z,63.49
2019-05-03T20:55:38.951Z,64.32
2019-05-03T20:58:11.407Z,64.70
2019-05-03T21:00:40.718Z,65.40
2019-05-03T21:03:10.126Z,65.78
2019-05-03T21:05:39.571Z,66.80
2019-05-03T21:08:09.061Z,66.83
2019-05-03T21:10:38.499Z,67.08
2019-05-03T21:13:08.822Z,65.75
2019-05-03T21:15:50.375Z,66.13
2019-05-03T21:18:34.523Z,65.80
2019-05-03T21:21:12.022Z,67.05
2019-05-03T21:24:01.723Z,67.48
2019-05-03T21:26:31.315Z,66.72
2019-05-03T21:29:00.756Z,65.48
2019-05-03T21:31:30.192Z,64.64
2019-05-03T21:33:59.615Z,64.67
2019-05-03T21:36:29.177Z,64.76
2019-05-03T21:38:59.082Z,64.59
2019-05-03T21:41:28.509Z,65.60
2019-05-03T21:43:58.020Z,65.12
2019-05-03T21:46:34.980Z,64.11
2019-05-03T21:49:09.995Z,63.82
2019-05-03T21:51:39.536Z,63.72
2019-05-03T21:54:09.078Z,63.84
2019-05-03T21:56:38.484Z,65.79
2019-05-03T21:59:07.993Z,64.96
2019-05-03T22:01:39.136Z,64.56
2019-05-03T22:04:08.907Z,65.85
2019-05-03T22:06:40.085Z,65.31
2019-05-03T22:09:09.869Z,64.59
2019-05-03T22:11:39.419Z,65.40
2019-05-03T22:14:10.567Z,65.49
2019-05-03T22:16:41.801Z,66.28
2019-05-03T22:19:11.406Z,66.53
2019-05-03T22:21:45.366Z,66.52
2019-05-03T22:24:22.205Z,67.67
2019-05-03T22:26:53.287Z,68.22
2019-05-03T22:29:22.706Z,68.87
2019-05-03T22:31:52.099Z,69.96
2019-05-03T22:34:21.546Z,70.81
2019-05-03T22:36:50.942Z,71.69
2019-05-03T22:39:20.379Z,72.82
2019-05-03T22:41:49.783Z,74.06
2019-05-03T22:44:19.224Z,74.42
2019-05-03T22:46:48.628Z,75.23
2019-05-03T22:49:18.050Z,75.72
2019-05-03T22:51:47.448Z,76.32
2019-05-03T22:54:16.983Z,77.14
2019-05-03T22:56:46.371Z,76.33
2019-05-03T22:59:15.888Z,77.29
2019-05-03T23:01:45.885Z,77.09
2019-05-03T23:04:15.496Z,78.12
2019-05-03T23:06:47.055Z,78.78
2019-05-03T23:09:16.158Z,77.65
2019-05-03T23:11:47.094Z,77.47
2019-05-03T23:14:16.624Z,77.48
2019-05-03T23:16:46.061Z,78.13
2019-05-03T23:19:15.565Z,78.81
2019-05-03T23:21:46.711Z,78.91
2019-05-03T23:24:16.126Z,78.52
2019-05-03T23:26:45.585Z,79.18
2019-05-03T23:29:15.163Z,78.81
2019-05-03T23:31:46.113Z,79.25
2019-05-03T23:34:15.532Z,79.80
2019-05-03T23:36:45.565Z,80.50
2019-05-03T23:39:16.267Z,81.07
2019-05-03T23:41:45.688Z,80.05
2019-05-03T23:44:15.257Z,80.59
2019-05-03T23:46:47.307Z,80.41
2019-05-03T23:49:16.733Z,80.74
2019-05-03T23:51:50.530Z,81.22
2019-05-03T23:54:20.404Z,81.16
2019-05-03T23:56:51.560Z,82.06
2019-05-03T23:59:20.999Z,82.54
